Terminal Aerodrome Forecast
Issued by NWS

Home | Current Version | Previous Version | Text Only | Print | Product List | Glossary On
Versions: 1 2 3 4 5 6 7 8 9 10 11 12 13 14 15 16 17 18 19 20 21 22 23 24 25 26
000
FTUS42 KCAE 230836 AAA
TAFOGB
TAF AMD
KOGB 230836Z 2309/2406 21006KT P6SM SKC
     FM231500 23009KT P6SM SCT050
     FM232000 21009KT P6SM BKN050
     FM240300 22005KT P6SM SCT050=

USA.gov is the U.S. government's official web portal to all federal, state and local government web resources and services.